Main page
METAR-TAF:

METAR-TAF

Airports :

Singapore, Singapore

Singapore Changi Airport

latitude: 01-22N, longitude: 103-59E, elevation: 5 m

Current weather observation

The report was made 16 minutes ago, at 19:00 UTC
Wind 2 kt from variable directions
Temperature 26°C
Humidity 89%
Pressure 1008 hPa
Visibility 10 km or more
no clouds below 1500 m and no cumulonimbus

METAR: WSSS 231900Z VRB02KT CAVOK 26/24 Q1008 NOSIG

Time: 03:16 (19:16 UTC)

Forecast

The report was made 2 hours and 16 minutes ago, at 17:00 UTC
Forecast valid from 23 at 18 UTC to 25 at 00 UTC
Wind 8 kt from the West
Visibility 10 km or more
Few clouds at a height of 1800 ft, Cumulonimbus.
Scattered clouds at a height of 2000 ft
Temporary
from 24 at 06 UTC to 24 at 10 UTC
Visibility: 3000 m
Few clouds at a height of 1200 ft, Cumulonimbus.
Broken clouds at a height of 1500 ft
thunderstorm, rain

TAF: WSSS 231700Z 2318/2500 26008KT 9999 FEW018CB SCT020 TEMPO 2406/2410 3000 TSRA FEW012CB BKN015

Weather observations and forecasts of more than 4000 airports (METAR and TAF reports).

The available stations are represented by yellow and red dots on the map.

Hover mouse over dot to see the name of the station.

Then click to see weather observations and forecasts.

To change the map : click on the green buttons with a black cross to zoom in, on the green button with a dash to zoom out, or on the green arrows for adjacent maps.


METAR-TAF: